Latest Weather Observations for Telfer

IDW60801

Issued at 4:05 am WST Monday 24 November 2014 (issued every 30 minutes, with the page automatically refreshed every 10 minutes)

About weather observations | Map of weather stations | Latest weather observations for WA | Other Formats
Station Details ID: 013030 Name: TELFER AERO Lat: -21.71 Lon: 122.23 Height: 291.9 m
Data from the previous 72 hours. | See also: Recent months at Telfer
Date/Time
WST
Temp
°C
App
Temp
°C
Dew
Point
Rel
Hum
%
Delta-T
°C
Wind Press
QNH
hPa
Press
MSL
hPa
Rain
since 9 am
mm
Dir
 
Spd
km/h
Gust
km/h
Spd
kts
Gust
kts
24/04:00am 28.7 27.5 10.4 32 10.5 W 7 11 4 6 1009.1 1006.9 0.0
24/03:30am 29.0 27.5 10.6 32 10.6 W 9 13 5 7 1009.0 1006.8 0.0
24/03:00am 28.7 28.2 10.8 33 10.3 W 4 9 2 5 1009.0 1006.8 0.0
24/02:30am 29.3 28.5 10.9 32 10.7 W 6 9 3 5 1009.2 1007.0 0.0
24/02:00am 29.2 29.1 10.8 32 10.6 WSW 2 7 1 4 1009.4 1007.2 0.0
24/01:30am 29.6 28.7 11.2 32 10.7 S 7 9 4 5 1009.4 1007.2 0.0
24/01:00am 29.6 28.7 11.2 32 10.7 W 7 11 4 6 1009.7 1007.4 0.0
24/12:30am 30.0 29.3 11.5 32 10.8 NNW 6 11 3 6 1009.9 1007.6 0.0
24/12:00am 31.5 29.6 11.8 30 11.7 NW 13 17 7 9 1010.1 1007.8 0.0
 
Date/Time
WST
Temp
°C
App
Temp
°C
Dew
Point
Rel
Hum
%
Delta-T
°C
Wind Press
QNH
hPa
Press
MSL
hPa
Rain
since 9 am
mm
Dir
 
Spd
km/h
Gust
km/h
Spd
kts
Gust
kts
23/11:30pm 32.3 29.9 11.5 28 12.3 NW 15 20 8 11 1010.3 1008.0 0.0
23/11:00pm 33.3 30.6 11.8 27 12.9 NW 17 24 9 13 1010.6 1008.3 0.0
23/10:30pm 34.5 30.4 11.6 25 13.7 WNW 24 30 13 16 1010.6 1008.3 0.0
23/10:00pm 33.5 32.6 10.8 25 13.4 SE 6 11 3 6 1010.5 1008.2 0.0
23/09:30pm 34.8 34.3 10.6 23 14.3 WSW 4 9 2 5 1010.3 1008.0 0.0
23/09:00pm 34.9 33.4 10.7 23 14.3 N 9 15 5 8 1009.7 1007.4 0.0
23/08:30pm 35.6 33.5 9.9 21 15.1 SSE 11 15 6 8 1009.1 1006.9 0.0
23/08:00pm 35.8 34.9 10.8 22 14.9 S 6 7 3 4 1009.1 1006.9 0.0
23/07:30pm 36.4 33.9 9.8 20 15.6 SSW 13 19 7 10 1008.6 1006.4 0.0
23/07:00pm 36.9 32.6 9.5 19 16.1 SW 22 32 12 17 1008.2 1005.9 0.0
23/06:30pm 37.1 32.7 10.4 20 15.9 W 24 37 13 20 1007.9 1005.6 0.0
23/06:00pm 37.3 35.8 10.6 20 15.9 WSW 9 13 5 7 1007.4 1005.1 0.0
23/05:30pm 37.4 32.5 9.9 19 16.2 SW 26 33 14 18 1007.2 1004.9 0.0
23/05:14pm 37.5 30.3 10.7 20 16.0 WSW 39 50 21 27 1007.0 1004.7 0.0
23/05:00pm 39.1 35.2 8.7 16 17.8 WNW 19 28 10 15 1006.9 1004.6 0.0
23/04:30pm 38.7 34.2 10.1 18 17.0 W 24 33 13 18 1006.6 1004.3 0.0
23/04:00pm 39.9 35.6 9.3 16 18.1 W 22 33 12 18 1006.4 1004.1 0.0
23/03:30pm 40.2 34.6 8.6 15 18.5 NW 28 33 15 18 1006.5 1004.2 0.0
23/03:00pm 40.1 36.2 8.5 15 18.5 NW 19 30 10 16 1006.7 1004.4 0.0
23/02:30pm 41.4 37.5 8.5 14 19.3 NW 19 35 10 19 1007.0 1004.7 0.0
23/02:00pm 41.0 35.3 8.2 14 19.2 NW 28 44 15 24 1007.3 1005.0 0.0
23/01:30pm 41.1 35.3 9.3 15 18.9 WNW 30 50 16 27 1007.6 1005.3 0.0
23/01:28pm 41.7 36.1 8.8 14 19.4 W 28 50 15 27 1007.5 1005.2 0.0
23/01:00pm 40.8 36.1 9.1 15 18.8 WNW 24 35 13 19 1008.0 1005.7 0.0
23/12:30pm 40.6 34.7 8.9 15 18.7 WNW 30 43 16 23 1008.4 1006.1 0.0
23/12:00pm 40.2 35.6 9.6 16 18.2 NW 24 39 13 21 1008.7 1006.5 0.0
23/11:30am 39.7 34.6 9.2 16 18.0 NW 26 35 14 19 1009.3 1007.1 0.0
23/11:00am 39.7 34.7 8.2 15 18.3 W 24 39 13 21 1009.8 1007.5 0.0
23/10:30am 39.1 34.8 7.7 15 18.1 W 20 33 11 18 1010.2 1007.9 0.0
23/10:00am 38.5 33.7 7.3 15 17.8 WNW 22 32 12 17 1010.7 1008.4 0.0
23/09:30am 37.3 33.1 8.2 17 16.7 WNW 20 28 11 15 1010.9 1008.6 0.0
23/09:00am 36.6 32.6 9.2 19 16.0 WNW 20 30 11 16 1010.9 1008.6 0.0
23/08:30am 35.8 30.5 7.0 17 16.2 W 24 28 13 15 1010.8 1008.5 0.0
23/08:00am 35.1 29.5 7.2 18 15.7 WNW 26 35 14 19 1010.5 1008.2 0.0
23/07:30am 33.3 29.2 8.0 21 14.2 NW 19 26 10 14 1010.6 1008.3 0.0
23/07:00am 31.2 28.7 11.1 29 11.8 NW 15 22 8 12 1010.6 1008.3 0.0
23/06:30am 29.2 27.8 12.2 35 10.0 NW 11 15 6 8 1010.4 1008.1 0.0
23/06:00am 28.1 27.5 12.4 37 9.3 NNW 7 9 4 5 1010.0 1007.7 0.0
23/05:30am 27.0 26.5 12.6 41 8.5 NW 7 9 4 5 1009.8 1007.5 0.0
23/05:00am 26.6 25.7 12.6 42 8.2 NNW 9 15 5 8 1009.4 1007.2 0.0
23/04:30am 27.3 25.1 12.1 39 8.9 NW 15 20 8 11 1009.1 1006.9 0.0
23/04:00am 28.5 26.7 12.0 36 9.7 NW 13 17 7 9 1009.0 1006.8 0.0
23/03:30am 28.6 26.8 12.1 36 9.7 WNW 13 17 7 9 1008.7 1006.5 0.0
23/03:00am 28.8 27.0 12.2 35 9.8 WNW 13 17 7 9 1008.5 1006.3 0.0
23/02:30am 28.8 27.8 12.2 35 9.8 WNW 9 13 5 7 1008.4 1006.1 0.0
23/02:00am 28.8 28.2 12.2 35 9.8 NW 7 11 4 6 1008.4 1006.1 0.0
23/01:30am 28.7 29.1 12.6 37 9.6 WNW 2 6 1 3 1008.5 1006.3 0.0
23/01:00am 29.1 27.7 12.1 35 10.0 WNW 11 13 6 7 1008.6 1006.4 0.0
23/12:30am 29.3 28.5 11.8 34 10.3 NW 7 9 4 5 1008.8 1006.6 0.0
23/12:00am 29.1 27.7 12.1 35 10.0 NNW 11 13 6 7 1009.2 1007.0 0.0
 
Date/Time
WST
Temp
°C
App
Temp
°C
Dew
Point
Rel
Hum
%
Delta-T
°C
Wind Press
QNH
hPa
Press
MSL
hPa
Rain
since 9 am
mm
Dir
 
Spd
km/h
Gust
km/h
Spd
kts
Gust
kts
22/11:30pm 28.7 27.7 12.2 36 9.7 N 9 13 5 7 1009.4 1007.2 0.0
22/11:00pm 29.2 30.0 12.6 36 9.9 CALM 0 0 0 0 1009.8 1007.5 0.0
22/10:30pm 30.1 29.5 11.6 32 10.9 SSW 6 9 3 5 1010.0 1007.7 0.0
22/10:00pm 30.3 29.8 12.2 33 10.8 S 6 9 3 5 1010.1 1007.8 0.0
22/09:30pm 30.8 28.5 11.7 31 11.3 SSW 15 22 8 12 1010.3 1008.0 0.0
22/09:00pm 31.4 28.9 12.2 30 11.5 SSW 17 30 9 16 1010.5 1008.2 0.0
22/08:30pm 31.5 28.4 12.3 31 11.5 SW 20 26 11 14 1010.5 1008.2 0.0
22/08:00pm 31.9 27.6 12.2 30 11.8 SW 26 39 14 21 1010.4 1008.1 0.0
22/07:30pm 32.1 27.9 12.3 29 11.9 SW 26 37 14 20 1010.4 1008.1 0.0
22/07:00pm 32.2 27.3 12.4 30 11.9 SW 30 43 16 23 1010.2 1007.9 0.0
22/06:30pm 32.8 26.7 11.9 28 12.5 WSW 35 46 19 25 1010.1 1007.8 0.0
22/06:00pm 34.1 28.1 10.7 24 13.8 WSW 33 46 18 25 1009.9 1007.6 0.0
22/05:30pm 35.1 28.9 10.2 22 14.6 WSW 33 48 18 26 1009.2 1007.0 0.0
22/05:00pm 36.3 30.0 9.0 19 15.9 SW 32 41 17 22 1008.8 1006.6 0.0
22/04:30pm 37.0 31.6 7.9 17 16.6 SW 26 39 14 21 1008.5 1006.3 0.0
22/04:00pm 37.8 32.7 7.7 16 17.3 SW 24 32 13 17 1008.3 1006.0 0.0
22/03:30pm 38.4 34.1 7.2 15 17.8 WSW 19 26 10 14 1008.4 1006.1 0.0
22/03:00pm 38.5 33.1 6.3 14 18.1 SW 24 32 13 17 1008.5 1006.3 0.0
22/02:30pm 38.0 33.1 6.9 15 17.6 WSW 22 30 12 16 1008.8 1006.6 0.0
22/02:00pm 38.2 33.1 6.0 14 18.0 WSW 22 30 12 16 1009.1 1006.9 0.0
22/01:30pm 38.0 32.9 5.9 14 17.9 WSW 22 30 12 16 1009.3 1007.1 0.0
22/01:00pm 37.6 33.2 4.5 13 18.1 SW 17 28 9 15 1009.8 1007.5 0.0
22/12:30pm 38.2 32.5 2.6 11 18.9 S 22 32 12 17 1010.0 1007.7 0.0
22/12:00pm 39.2 32.1 3.4 11 19.4 S 30 39 16 21 1010.1 1007.8 0.0
22/11:30am 37.8 29.5 2.3 11 18.7 SW 35 54 19 29 1010.3 1008.0 0.0
22/11:23am 37.6 30.6 2.1 11 18.6 SW 28 48 15 26 1010.3 1008.0 0.0
22/11:22am 38.7 31.6 1.6 10 19.4 SW 28 43 15 23 1010.2 1007.9 0.0
22/11:00am 38.6 35.3 0.1 9 19.7 S 7 15 4 8 1010.4 1008.1 0.0
22/10:30am 39.4 35.1 0.7 9 20.1 S 13 20 7 11 1010.1 1007.8 0.0
22/10:00am 38.8 33.1 0.3 9 19.8 SE 20 24 11 13 1010.4 1008.1 0.0
22/09:30am 38.3 32.7 -0.1 9 19.6 SSE 19 26 10 14 1010.5 1008.2 0.0
22/09:00am 37.7 32.1 0.9 10 19.0 SSE 20 32 11 17 1010.7 1008.4 0.0
22/08:30am 36.9 31.0 1.6 11 18.3 SSE 22 30 12 16 1010.6 1008.3 0.0
22/08:00am 35.1 29.9 3.6 14 16.7 S 20 26 11 14 1010.4 1008.1 0.0
22/07:30am 34.1 29.9 3.8 15 16.0 SSW 15 20 8 11 1010.3 1008.0 0.0
22/07:00am 32.9 29.5 7.7 21 14.1 SW 15 20 8 11 1010.0 1007.7 0.0
22/06:30am 31.2 27.1 8.8 25 12.6 SW 20 28 11 15 1009.7 1007.4 0.0
22/06:00am 30.3 26.3 8.1 25 12.4 SW 19 24 10 13 1009.2 1007.0 0.0
22/05:30am 30.1 26.9 8.5 26 12.1 SW 15 19 8 10 1009.0 1006.8 0.0
22/05:00am 30.0 26.4 8.4 26 12.1 SW 17 22 9 12 1008.7 1006.5 0.0
22/04:30am 30.1 26.5 8.5 26 12.1 SW 17 20 9 11 1008.6 1006.4 0.0
22/04:00am 30.6 26.6 8.9 26 12.3 WSW 20 28 11 15 1008.2 1005.9 0.0
22/03:30am 31.1 27.2 8.8 25 12.6 W 19 26 10 14 1007.9 1005.6 0.0
22/03:00am 31.5 27.0 8.5 24 13.0 W 22 33 12 18 1007.5 1005.2 0.0
22/02:30am 31.6 26.9 9.2 25 12.8 W 24 33 13 18 1007.2 1004.9 0.0
22/02:00am 30.6 25.6 9.5 27 12.0 W 26 33 14 18 1007.3 1005.0 0.0
22/01:30am 31.0 25.5 9.3 26 12.3 W 28 32 15 17 1007.9 1005.6 0.0
22/01:00am 30.1 26.9 10.1 29 11.5 W 17 20 9 11 1008.3 1006.0 0.0
22/12:30am 30.4 27.0 10.4 29 11.5 NW 19 24 10 13 1007.8 1005.5 0.0
22/12:00am 31.0 27.6 10.4 28 11.9 NW 19 22 10 12 1008.1 1005.8 0.0
 
Date/Time
WST
Temp
°C
App
Temp
°C
Dew
Point
Rel
Hum
%
Delta-T
°C
Wind Press
QNH
hPa
Press
MSL
hPa
Rain
since 9 am
mm
Dir
 
Spd
km/h
Gust
km/h
Spd
kts
Gust
kts
21/11:30pm 31.8 28.8 10.5 27 12.4 NW 17 24 9 13 1008.3 1006.0 0.0
21/11:00pm 33.1 29.3 9.8 24 13.5 NW 20 28 11 15 1008.4 1006.1 0.0
21/10:30pm 34.3 29.7 9.5 22 14.4 NW 24 32 13 17 1008.6 1006.4 0.0
21/10:00pm 34.5 30.5 9.0 21 14.7 NW 20 28 11 15 1008.4 1006.1 0.0
21/09:30pm 34.8 30.5 7.0 18 15.5 NNW 19 24 10 13 1008.3 1006.0 0.0
21/09:00pm 36.8 32.6 5.9 15 17.2 W 17 20 9 11 1007.9 1005.6 0.0
21/08:30pm 37.2 33.1 6.3 15 17.3 WNW 17 20 9 11 1007.8 1005.5 0.0
21/08:00pm 37.4 33.7 6.4 15 17.4 WNW 15 17 8 9 1007.6 1005.3 0.0
21/07:30pm 38.0 34.2 5.9 14 17.9 WNW 15 17 8 9 1007.4 1005.1 0.0
21/07:00pm 38.6 34.5 6.3 14 18.2 WNW 17 19 9 10 1007.2 1004.9 0.0
21/06:30pm 39.2 34.6 5.7 13 18.7 WNW 19 24 10 13 1007.0 1004.7 0.0
21/06:00pm 40.2 35.9 5.4 12 19.5 W 17 24 9 13 1006.8 1004.5 0.0
21/05:30pm 41.2 37.1 6.1 12 19.9 W 17 22 9 12 1006.5 1004.2 0.0
21/05:00pm 41.5 36.9 6.4 12 20.1 WNW 20 28 11 15 1006.3 1004.0 0.0
21/04:30pm 42.1 36.2 5.6 11 20.7 W 26 37 14 20 1006.1 1003.8 0.0
21/04:00pm 41.3 37.6 6.2 12 20.0 NW 15 20 8 11 1006.2 1003.9 0.0
21/03:30pm 42.2 39.8 6.9 12 20.4 S 9 13 5 7 1006.3 1004.0 0.0
21/03:00pm 42.1 36.8 6.8 12 20.4 WNW 24 35 13 19 1006.7 1004.4 0.0
21/02:30pm 42.3 37.8 7.0 12 20.4 NW 20 32 11 17 1007.0 1004.7 0.0
21/02:00pm 42.9 38.5 7.4 12 20.7 WNW 20 33 11 18 1007.2 1004.9 0.0
21/01:30pm 41.9 37.8 7.8 13 19.9 NNW 19 28 10 15 1007.6 1005.3 0.0
21/01:00pm 41.4 37.6 7.4 13 19.7 NNW 17 24 9 13 1008.1 1005.8 0.0
21/12:30pm 41.7 38.3 7.7 13 19.8 NNW 15 28 8 15 1008.3 1006.0 0.0
21/12:00pm 40.9 37.6 8.1 14 19.2 N 15 24 8 13 1008.8 1006.6 0.0
21/11:30am 40.7 37.4 8.0 14 19.0 NNW 15 24 8 13 1009.4 1007.2 0.0
21/11:00am 39.7 36.6 7.2 14 18.6 NNW 13 20 7 11 1009.9 1007.6 0.0
21/10:30am 39.5 37.4 8.1 15 18.2 SE 9 13 5 7 1010.3 1008.0 0.0
21/10:00am 37.9 36.4 8.6 17 17.0 W 6 11 3 6 1010.6 1008.3 0.0
21/09:30am 37.4 36.1 9.9 19 16.2 W 7 11 4 6 1010.8 1008.5 0.0
21/09:00am 36.1 35.1 11.0 22 15.0 SW 7 11 4 6 1011.0 1008.7 0.0
21/08:30am 34.7 33.0 11.2 24 14.0 WSW 11 15 6 8 1011.0 1008.7 0.0
21/08:00am 33.4 32.3 11.9 27 12.9 WSW 9 15 5 8 1011.0 1008.7 0.0
21/07:30am 32.1 31.0 11.8 29 12.1 WSW 9 13 5 7 1010.9 1008.6 0.0
21/07:00am 31.6 30.1 11.9 30 11.7 W 11 17 6 9 1010.6 1008.3 0.0
21/06:30am 30.4 31.0 13.2 35 10.4 E 2 7 1 4 1010.4 1008.1 0.0
21/06:00am 30.2 29.7 12.6 34 10.5 W 7 11 4 6 1010.2 1007.9 0.0
21/05:30am 28.9 27.5 12.3 36 9.8 WNW 11 15 6 8 1009.8 1007.5 0.0
21/05:00am 28.0 27.2 12.8 39 9.0 NW 9 11 5 6 1009.4 1007.2 0.0
21/04:30am 26.3 25.8 12.7 43 8.0 NNW 7 13 4 7 1009.4 1007.2 0.0

Other Formats:

Comma delimited format used in spreadsheet applications
http://www.bom.gov.au/fwo/IDW60801/IDW60801.94319.axf

JavaScript Object Notation format (JSON) in row-major order
http://www.bom.gov.au/fwo/IDW60801/IDW60801.94319.json